Time;durP1;ratioP1;P1;durP2;ratioP2;P2;SDS_P1;SDS_P2;PMS_P1;PMS_P2;Temp;Humidity;BMP_temperature;BMP_pressure;BME280_temperature;BME280_humidity;BME280_pressure;Samples;Min_cycle;Max_cycle;Signal;HPM_P1;HPM_P2
2021/05/14 00:01:01;;;;;;;0.80;0.80;;;14.60;99.90;;;;;;4913498;29;20024;-76
2021/05/14 00:03:29;;;;;;;0.95;0.50;;;14.60;99.90;;;;;;4912569;29;20111;-76
2021/05/14 00:05:55;;;;;;;0.60;0.60;;;14.60;99.90;;;;;;4912764;29;20036;-76
2021/05/14 00:08:21;;;;;;;0.50;0.50;;;14.60;99.90;;;;;;4913488;29;20079;-76
2021/05/14 00:10:47;;;;;;;0.60;0.60;;;14.60;99.90;;;;;;4895435;29;20032;-77
2021/05/14 00:13:13;;;;;;;1.75;1.00;;;14.50;99.90;;;;;;4914853;29;20396;-76
2021/05/14 00:15:39;;;;;;;0.50;0.50;;;14.50;99.90;;;;;;4901331;29;20173;-76
2021/05/14 00:18:05;;;;;;;0.95;0.70;;;14.50;99.90;;;;;;4897059;29;20092;-77
2021/05/14 00:20:31;;;;;;;0.80;0.80;;;14.50;99.90;;;;;;4893479;29;20025;-77
2021/05/14 00:22:56;;;;;;;0.70;0.70;;;14.50;99.90;;;;;;4892603;29;20111;-77
2021/05/14 00:25:22;;;;;;;1.52;0.93;;;14.50;99.90;;;;;;4892901;29;20021;-77
2021/05/14 00:27:48;;;;;;;1.48;0.70;;;14.50;99.90;;;;;;4894359;29;20088;-77
2021/05/14 00:30:15;;;;;;;0.60;0.60;;;14.50;99.90;;;;;;4893287;29;20040;-77
2021/05/14 00:32:41;;;;;;;0.47;0.47;;;14.50;99.90;;;;;;4893022;29;20027;-77
2021/05/14 00:35:07;;;;;;;1.85;0.70;;;14.50;99.90;;;;;;4893845;29;20032;-77
2021/05/14 00:37:34;;;;;;;1.83;0.65;;;14.50;99.90;;;;;;4893351;29;20028;-77
2021/05/14 00:40:05;;;;;;;0.55;0.55;;;14.40;99.90;;;;;;4908114;29;20032;-77
2021/05/14 00:42:31;;;;;;;0.70;0.70;;;14.40;99.90;;;;;;4912918;29;20039;-77
2021/05/14 00:44:56;;;;;;;1.73;0.80;;;14.40;99.90;;;;;;4903086;29;20185;-77
2021/05/14 00:47:22;;;;;;;0.70;0.70;;;14.40;99.90;;;;;;4893777;29;20068;-77
2021/05/14 00:49:48;;;;;;;0.80;0.80;;;14.40;99.90;;;;;;4893500;29;20052;-77
2021/05/14 00:52:16;;;;;;;2.25;0.70;;;14.30;99.90;;;;;;4903260;29;20028;-76
2021/05/14 00:54:43;;;;;;;0.80;0.80;;;14.20;99.90;;;;;;4912331;29;20075;-76
2021/05/14 00:57:10;;;;;;;0.70;0.70;;;14.20;99.90;;;;;;4895152;29;20071;-77
2021/05/14 00:59:36;;;;;;;2.30;0.98;;;14.20;99.90;;;;;;4894519;29;20172;-76
2021/05/14 01:02:05;;;;;;;1.55;0.95;;;14.20;99.90;;;;;;4912602;29;20163;-77
2021/05/14 01:04:31;;;;;;;0.70;0.70;;;14.10;99.90;;;;;;4904689;29;20066;-78
2021/05/14 01:06:57;;;;;;;0.75;0.75;;;14.10;99.90;;;;;;4930626;29;20028;-77
2021/05/14 01:09:26;;;;;;;0.80;0.80;;;14.00;99.90;;;;;;4930597;29;20028;-76
2021/05/14 01:11:52;;;;;;;0.95;0.95;;;13.90;99.90;;;;;;4917273;29;20028;-77
2021/05/14 01:14:18;;;;;;;0.98;0.98;;;13.90;99.90;;;;;;4929552;29;20047;-77
2021/05/14 01:16:43;;;;;;;1.23;1.15;;;14.00;99.90;;;;;;4916441;29;20396;-77
2021/05/14 01:19:09;;;;;;;0.90;0.90;;;14.00;99.90;;;;;;4900248;29;20058;-76
2021/05/14 01:21:35;;;;;;;1.77;0.95;;;14.00;99.90;;;;;;4917200;29;20415;-77
2021/05/14 01:24:02;;;;;;;1.00;1.00;;;14.00;99.90;;;;;;4900148;29;20488;-76
2021/05/14 01:26:27;;;;;;;1.40;1.30;;;13.90;99.90;;;;;;4899723;29;20492;-77
2021/05/14 01:28:54;;;;;;;0.98;0.98;;;13.90;99.90;;;;;;4916109;29;20038;-77
2021/05/14 01:31:21;;;;;;;1.60;1.50;;;13.90;99.90;;;;;;4915886;29;20032;-77
2021/05/14 01:33:48;;;;;;;1.23;1.15;;;13.90;99.90;;;;;;4916231;29;20127;-77
2021/05/14 01:36:14;;;;;;;1.13;1.13;;;13.80;99.90;;;;;;4915906;29;20075;-77
2021/05/14 01:38:44;;;;;;;2.35;1.00;;;13.70;99.90;;;;;;4927167;29;20024;-76
2021/05/14 01:41:10;;;;;;;1.00;1.00;;;13.60;99.90;;;;;;4934647;29;20035;-76
2021/05/14 01:43:37;;;;;;;1.42;1.02;;;13.50;99.90;;;;;;4934785;29;20024;-77
2021/05/14 01:46:05;;;;;;;1.15;1.15;;;13.50;99.90;;;;;;4917232;29;20388;-77
2021/05/14 01:48:31;;;;;;;1.52;1.42;;;13.50;99.90;;;;;;4911531;29;20024;-76
2021/05/14 01:51:22;;;;;;;2.92;1.20;;;13.50;99.90;;;;;;4911397;29;20387;-77
2021/05/14 01:53:49;;;;;;;1.85;1.75;;;13.50;99.90;;;;;;4909581;29;20079;-76
2021/05/14 01:56:15;;;;;;;1.40;1.30;;;13.50;99.90;;;;;;4911975;29;20035;-77
2021/05/14 01:58:41;;;;;;;1.30;1.30;;;13.40;99.90;;;;;;4911129;29;20036;-77
2021/05/14 02:01:10;;;;;;;1.58;1.48;;;13.40;99.90;;;;;;4911089;29;20025;-77
2021/05/14 02:03:36;;;;;;;1.60;1.50;;;13.40;99.90;;;;;;4911542;29;20425;-77
2021/05/14 02:06:01;;;;;;;1.38;1.33;;;13.50;99.90;;;;;;4910901;29;20012;-76
2021/05/14 02:08:27;;;;;;;1.80;1.70;;;13.50;99.90;;;;;;4911089;29;20024;-76
2021/05/14 02:10:53;;;;;;;1.27;1.27;;;13.50;99.90;;;;;;4911621;29;20031;-77
2021/05/14 02:13:19;;;;;;;1.45;1.40;;;13.40;99.90;;;;;;4898208;29;20043;-77
2021/05/14 02:15:44;;;;;;;1.50;1.40;;;13.40;99.90;;;;;;4897186;29;20122;-77
2021/05/14 02:18:10;;;;;;;1.67;1.58;;;13.30;99.90;;;;;;4914473;29;20040;-77
2021/05/14 02:20:39;;;;;;;2.55;1.60;;;13.30;99.90;;;;;;4915308;29;20115;-77
2021/05/14 02:23:05;;;;;;;3.55;1.50;;;13.30;99.90;;;;;;4907399;29;20040;-77
2021/05/14 02:25:31;;;;;;;2.10;1.90;;;13.30;99.90;;;;;;4894487;29;20051;-77
2021/05/14 02:27:56;;;;;;;1.63;1.52;;;13.30;99.90;;;;;;4918596;29;20028;-77
2021/05/14 02:30:22;;;;;;;1.75;1.65;;;13.40;99.90;;;;;;4912864;29;20122;-76
2021/05/14 02:32:48;;;;;;;2.42;1.52;;;13.30;99.90;;;;;;4913132;29;20177;-77
2021/05/14 02:35:15;;;;;;;1.77;1.67;;;13.30;99.90;;;;;;4929552;29;20054;-77
2021/05/14 02:37:44;;;;;;;1.85;1.75;;;13.30;99.90;;;;;;4929920;29;20039;-76
2021/05/14 02:40:10;;;;;;;1.73;1.65;;;13.30;99.90;;;;;;4930417;29;20036;-77
2021/05/14 02:42:39;;;;;;;1.63;1.52;;;13.30;99.90;;;;;;4911934;29;20028;-77
2021/05/14 02:45:09;;;;;;;2.28;1.90;;;13.40;99.90;;;;;;4919429;29;20020;-77
2021/05/14 02:47:34;;;;;;;1.70;1.60;;;13.40;99.90;;;;;;4911246;29;20020;-77
2021/05/14 02:50:00;;;;;;;1.55;1.45;;;13.40;99.90;;;;;;4893501;29;20446;-77
2021/05/14 02:52:26;;;;;;;1.73;1.63;;;13.40;99.90;;;;;;4922413;29;20035;-77
2021/05/14 02:54:51;;;;;;;1.58;1.48;;;13.30;99.90;;;;;;4914498;29;20032;-77
2021/05/14 02:57:18;;;;;;;1.80;1.40;;;13.40;99.90;;;;;;4932972;29;20094;-77
2021/05/14 02:59:44;;;;;;;5.78;1.83;;;13.40;99.90;;;;;;4933532;29;20058;-77
2021/05/14 03:02:10;;;;;;;2.78;1.48;;;13.40;99.90;;;;;;4915972;29;20464;-77
2021/05/14 03:04:36;;;;;;;1.63;1.50;;;13.40;99.90;;;;;;4915197;29;20530;-77
2021/05/14 03:07:02;;;;;;;1.70;1.60;;;13.40;99.90;;;;;;4933897;29;20020;-77
2021/05/14 03:09:28;;;;;;;1.50;1.40;;;13.40;99.90;;;;;;4932647;29;20455;-77
2021/05/14 03:11:54;;;;;;;1.80;1.70;;;13.40;99.90;;;;;;4932972;29;20556;-76
2021/05/14 03:14:19;;;;;;;1.50;1.40;;;13.40;99.90;;;;;;4929088;29;20619;-77
2021/05/14 03:16:45;;;;;;;1.77;1.67;;;13.30;99.90;;;;;;4912991;29;20382;-77
2021/05/14 03:19:11;;;;;;;2.80;1.70;;;13.30;99.90;;;;;;4913779;29;20024;-77
2021/05/14 03:21:37;;;;;;;2.13;2.03;;;13.30;99.90;;;;;;4913902;29;20043;-77
2021/05/14 03:24:03;;;;;;;2.05;1.90;;;13.40;99.90;;;;;;4896386;29;20138;-77
2021/05/14 03:26:29;;;;;;;1.92;1.83;;;13.40;99.90;;;;;;4914241;29;20118;-77
2021/05/14 03:28:55;;;;;;;1.80;1.70;;;13.40;99.90;;;;;;4913563;29;20388;-77
2021/05/14 03:31:21;;;;;;;2.50;2.13;;;13.50;99.90;;;;;;4916925;29;20495;-76
2021/05/14 03:33:47;;;;;;;1.80;1.70;;;13.50;99.90;;;;;;4932714;29;20151;-77
2021/05/14 03:36:19;;;;;;;1.60;1.50;;;13.50;99.90;;;;;;4932333;29;20024;-77
2021/05/14 03:38:45;;;;;;;1.20;1.20;;;13.50;99.90;;;;;;4932247;29;20428;-77
2021/05/14 03:41:31;;;;;;;2.10;1.15;;;13.50;99.90;;;;;;4915610;29;20052;-77
2021/05/14 03:43:58;;;;;;;2.35;1.60;;;13.50;99.90;;;;;;4931208;29;20027;-77
2021/05/14 03:46:27;;;;;;;1.95;1.38;;;13.40;99.90;;;;;;4913277;29;20375;-77
2021/05/14 03:48:53;;;;;;;0.70;0.70;;;13.30;99.90;;;;;;4913210;29;20489;-77
2021/05/14 03:51:19;;;;;;;1.10;1.05;;;13.20;99.90;;;;;;4913375;29;20039;-77
2021/05/14 03:53:44;;;;;;;5.13;0.80;;;13.10;99.90;;;;;;4913735;29;20024;-77
2021/05/14 03:56:13;;;;;;;1.02;0.80;;;13.10;99.90;;;;;;4912566;29;20229;-77
2021/05/14 03:58:39;;;;;;;0.85;0.85;;;13.00;99.90;;;;;;4896546;29;20032;-77
2021/05/14 04:01:05;;;;;;;2.15;0.77;;;13.00;99.90;;;;;;4912977;29;20508;-77
2021/05/14 04:03:31;;;;;;;0.80;0.80;;;13.00;99.90;;;;;;4912774;29;20028;-77
2021/05/14 04:05:56;;;;;;;0.82;0.82;;;13.00;99.90;;;;;;4912126;29;20051;-77
2021/05/14 04:08:22;;;;;;;1.13;1.02;;;13.00;99.90;;;;;;4912804;29;20059;-77
2021/05/14 04:16:17;;;;;;;1.20;1.10;;;12.80;99.90;;;;;;4893543;29;20104;-77
2021/05/14 04:18:45;;;;;;;1.38;1.27;;;12.70;99.90;;;;;;4893765;29;20111;-77
2021/05/14 04:21:11;;;;;;;1.77;1.67;;;12.70;99.90;;;;;;4894534;29;20519;-77
2021/05/14 04:23:37;;;;;;;5.20;1.90;;;12.80;99.90;;;;;;4895748;29;20020;-77
2021/05/14 04:26:03;;;;;;;3.92;3.25;;;12.80;99.90;;;;;;4905760;29;20055;-77
2021/05/14 04:28:28;;;;;;;3.60;3.25;;;12.80;99.90;;;;;;4905502;29;20020;-77
2021/05/14 04:30:54;;;;;;;3.45;3.15;;;12.80;99.90;;;;;;4883806;29;20040;-77
2021/05/14 04:33:20;;;;;;;1.92;1.83;;;12.80;99.90;;;;;;4884382;29;20028;-77
2021/05/14 04:35:45;;;;;;;1.50;1.40;;;12.70;99.90;;;;;;4903050;29;20111;-76
2021/05/14 04:38:11;;;;;;;1.42;1.33;;;12.70;99.90;;;;;;4901019;29;20055;-77
2021/05/14 04:40:37;;;;;;;0.90;0.90;;;12.70;99.90;;;;;;4901281;29;20044;-77
2021/05/14 04:43:04;;;;;;;2.13;1.08;;;12.70;99.90;;;;;;4901352;29;20063;-77
2021/05/14 04:45:30;;;;;;;1.50;1.10;;;12.80;99.90;;;;;;4885991;29;20411;-77
2021/05/14 04:47:57;;;;;;;1.20;1.20;;;12.80;99.90;;;;;;4886898;29;20050;-77
2021/05/14 04:50:23;;;;;;;2.58;1.10;;;12.80;99.90;;;;;;4912012;29;20028;-77
2021/05/14 04:53:04;;;;;;;1.30;0.95;;;12.70;99.90;;;;;;4920145;29;20032;-76
2021/05/14 04:55:31;;;;;;;0.98;0.98;;;12.80;99.90;;;;;;4888986;29;20028;-77
2021/05/14 04:57:57;;;;;;;1.08;1.00;;;12.80;99.90;;;;;;4912390;29;20032;-77
2021/05/14 05:00:23;;;;;;;0.80;0.80;;;12.80;99.90;;;;;;4910273;29;20433;-77
2021/05/14 05:02:49;;;;;;;1.60;1.50;;;12.80;99.90;;;;;;4892194;29;20388;-77
2021/05/14 05:05:15;;;;;;;1.40;1.30;;;12.80;99.90;;;;;;4902987;29;20114;-77
2021/05/14 05:07:40;;;;;;;1.15;1.15;;;12.80;99.90;;;;;;4889438;29;20021;-77
2021/05/14 05:10:07;;;;;;;0.88;0.88;;;12.90;99.90;;;;;;4903212;29;20039;-77
2021/05/14 05:12:33;;;;;;;2.88;1.20;;;12.90;99.90;;;;;;4907231;29;20773;-77
2021/05/14 05:14:58;;;;;;;2.25;1.27;;;12.90;99.90;;;;;;4911995;29;20024;-77
2021/05/14 05:17:24;;;;;;;0.93;0.93;;;12.90;99.90;;;;;;4930759;29;20075;-77
2021/05/14 05:19:51;;;;;;;2.85;0.98;;;12.90;99.90;;;;;;4930492;29;20067;-77
2021/05/14 05:22:17;;;;;;;1.30;1.30;;;13.00;99.90;;;;;;4919389;29;20023;-77
2021/05/14 05:24:43;;;;;;;2.05;1.20;;;13.00;99.90;;;;;;4912274;29;20020;-76
2021/05/14 05:27:08;;;;;;;1.55;1.45;;;13.00;99.90;;;;;;4924606;29;20082;-77
2021/05/14 05:29:37;;;;;;;3.85;2.28;;;13.00;99.90;;;;;;4912063;29;20035;-77
2021/05/14 05:32:03;;;;;;;3.40;2.10;;;13.10;99.90;;;;;;4929175;29;20024;-77
2021/05/14 05:34:29;;;;;;;4.65;2.88;;;13.10;99.90;;;;;;4925225;29;20193;-77
2021/05/14 05:36:56;;;;;;;3.92;3.35;;;13.10;99.90;;;;;;4913505;29;20509;-77
2021/05/14 05:39:24;;;;;;;12.88;6.25;;;13.30;99.90;;;;;;4891375;29;20032;-77
2021/05/14 05:41:50;;;;;;;12.32;8.50;;;13.30;99.90;;;;;;4924569;29;20024;-76
2021/05/14 05:44:16;;;;;;;12.48;9.40;;;13.40;99.90;;;;;;4926746;29;20400;-76
2021/05/14 05:46:42;;;;;;;15.80;10.82;;;13.40;99.90;;;;;;4925213;29;20019;-76
2021/05/14 05:49:08;;;;;;;15.98;11.35;;;13.40;99.90;;;;;;4929668;29;20428;-77
2021/05/14 05:51:34;;;;;;;17.95;10.63;;;13.50;99.90;;;;;;4924075;29;20032;-77
2021/05/14 05:54:00;;;;;;;16.08;11.32;;;13.60;99.90;;;;;;4894046;29;20023;-76
2021/05/14 05:56:29;;;;;;;15.30;10.77;;;13.60;99.90;;;;;;4910975;29;20055;-76
2021/05/14 05:58:58;;;;;;;17.38;11.40;;;13.70;99.90;;;;;;4911378;29;20365;-76
2021/05/14 06:01:23;;;;;;;14.63;10.80;;;13.80;99.90;;;;;;4914877;29;20048;-76
2021/05/14 06:03:49;;;;;;;17.00;11.43;;;13.90;99.90;;;;;;4914042;29;20084;-76
2021/05/14 06:06:15;;;;;;;15.80;11.23;;;13.90;99.90;;;;;;4915211;29;20039;-77
2021/05/14 06:08:41;;;;;;;17.67;12.30;;;13.80;99.90;;;;;;4915374;29;20115;-76
2021/05/14 06:11:07;;;;;;;14.40;11.00;;;13.90;99.90;;;;;;4898083;29;20032;-76
2021/05/14 06:13:34;;;;;;;15.95;10.93;;;14.00;99.90;;;;;;4898123;29;20032;-76
2021/05/14 06:16:01;;;;;;;13.18;10.52;;;14.10;99.90;;;;;;4915086;29;20029;-76
2021/05/14 06:18:31;;;;;;;17.38;11.20;;;14.10;99.90;;;;;;4911543;29;20051;-76
2021/05/14 06:20:59;;;;;;;13.70;10.82;;;14.20;99.90;;;;;;4893447;29;20399;-76
2021/05/14 06:23:25;;;;;;;14.00;10.10;;;14.20;99.90;;;;;;4910351;29;20025;-76
2021/05/14 06:25:50;;;;;;;14.48;10.45;;;14.30;99.90;;;;;;4911038;29;20384;-76
2021/05/14 06:28:23;;;;;;;12.88;9.45;;;14.30;99.90;;;;;;4911139;29;20020;-76
2021/05/14 06:30:53;;;;;;;11.15;8.60;;;14.30;99.90;;;;;;4913606;29;20071;-76
2021/05/14 06:33:18;;;;;;;11.45;8.77;;;14.30;99.90;;;;;;4914718;29;20500;-77
2021/05/14 06:35:47;;;;;;;11.98;9.15;;;14.30;99.90;;;;;;4897833;29;20024;-76
2021/05/14 06:38:12;;;;;;;13.52;9.43;;;14.30;99.90;;;;;;4915027;29;20024;-77
2021/05/14 06:40:38;;;;;;;12.68;9.93;;;14.20;99.90;;;;;;4914734;29;20485;-77
2021/05/14 06:43:04;;;;;;;15.18;10.55;;;14.10;99.90;;;;;;4896348;29;20024;-77
2021/05/14 06:45:30;;;;;;;14.30;10.57;;;14.10;99.90;;;;;;4913654;29;20016;-76
2021/05/14 06:48:07;;;;;;;15.13;11.07;;;14.00;99.90;;;;;;4914333;29;20350;-77
2021/05/14 06:50:33;;;;;;;14.55;10.95;;;14.10;99.90;;;;;;4933072;29;20042;-76
2021/05/14 06:53:02;;;;;;;13.45;10.05;;;14.10;99.90;;;;;;4933536;29;20031;-76
2021/05/14 06:55:27;;;;;;;15.05;10.77;;;14.10;99.90;;;;;;4933243;29;20388;-76
2021/05/14 06:57:53;;;;;;;14.63;10.77;;;14.20;99.90;;;;;;4934707;29;20035;-76
2021/05/14 07:00:19;;;;;;;14.40;11.18;;;14.20;99.90;;;;;;4936164;29;20096;-76
2021/05/14 07:02:46;;;;;;;15.50;11.20;;;14.30;99.90;;;;;;4935771;29;20031;-76
2021/05/14 07:05:16;;;;;;;15.63;9.80;;;14.30;99.90;;;;;;4920424;29;20408;-76
2021/05/14 07:07:43;;;;;;;16.17;9.70;;;14.30;99.90;;;;;;4916849;29;20100;-77
2021/05/14 07:10:10;;;;;;;11.85;9.65;;;14.30;99.90;;;;;;4916923;29;20488;-77
2021/05/14 07:12:36;;;;;;;14.70;10.73;;;14.40;99.90;;;;;;4899497;29;20076;-76
2021/05/14 07:15:07;;;;;;;15.05;10.60;;;14.40;99.90;;;;;;4900120;29;20484;-76
2021/05/14 07:17:33;;;;;;;16.90;10.43;;;14.50;99.90;;;;;;4916239;29;20035;-76
2021/05/14 07:19:59;;;;;;;14.35;9.48;;;14.60;99.90;;;;;;4908659;29;20028;-76
2021/05/14 07:22:25;;;;;;;13.38;10.68;;;14.60;99.90;;;;;;4916199;29;20054;-76
2021/05/14 07:24:50;;;;;;;12.43;9.60;;;14.50;99.90;;;;;;4916689;29;20032;-76
2021/05/14 07:27:20;;;;;;;13.55;9.02;;;14.60;99.90;;;;;;4909350;29;20020;-76
2021/05/14 07:29:46;;;;;;;12.55;9.90;;;14.60;99.90;;;;;;4881088;29;20029;-76
2021/05/14 07:32:12;;;;;;;15.65;10.55;;;14.70;99.90;;;;;;4897395;29;20084;-76
2021/05/14 07:34:38;;;;;;;13.60;10.63;;;14.60;99.90;;;;;;4897523;29;20119;-76
2021/05/14 07:37:06;;;;;;;12.07;9.43;;;14.70;99.90;;;;;;4898337;29;20032;-75
2021/05/14 07:39:32;;;;;;;13.43;9.75;;;14.80;99.90;;;;;;4882537;29;20036;-76
2021/05/14 07:41:58;;;;;;;14.27;9.77;;;14.90;99.90;;;;;;4899622;29;20027;-76
2021/05/14 07:44:24;;;;;;;10.38;8.88;;;15.00;99.90;;;;;;4900023;29;20033;-76
2021/05/14 07:46:50;;;;;;;13.65;9.90;;;15.10;99.90;;;;;;4896086;29;20374;-76
2021/05/14 07:49:16;;;;;;;12.35;9.63;;;15.10;99.90;;;;;;4902250;29;20040;-76
2021/05/14 07:51:42;;;;;;;11.13;8.82;;;15.20;99.90;;;;;;4904072;29;20028;-76
2021/05/14 07:54:08;;;;;;;10.18;8.65;;;15.30;99.90;;;;;;4904442;29;20302;-76
2021/05/14 07:56:34;;;;;;;9.15;7.97;;;15.40;99.90;;;;;;4904125;29;20477;-76
2021/05/14 07:58:59;;;;;;;11.10;8.20;;;15.40;99.90;;;;;;4906356;29;20039;-76
2021/05/14 08:01:28;;;;;;;10.27;8.93;;;15.50;99.90;;;;;;4903742;29;20088;-76
2021/05/14 08:03:57;;;;;;;8.98;8.07;;;15.50;99.90;;;;;;4893343;29;20135;-76
2021/05/14 08:06:22;;;;;;;7.97;7.07;;;15.60;99.90;;;;;;4922554;29;20024;-75
2021/05/14 08:08:48;;;;;;;8.02;7.22;;;15.50;99.90;;;;;;4925026;29;20131;-75
2021/05/14 08:11:14;;;;;;;8.13;7.32;;;15.70;99.90;;;;;;4924684;29;20028;-75
2021/05/14 08:13:40;;;;;;;7.65;6.85;;;15.70;99.90;;;;;;4927806;29;20364;-75
2021/05/14 08:16:06;;;;;;;7.60;6.90;;;15.80;99.90;;;;;;4921302;29;20067;-76
2021/05/14 08:18:34;;;;;;;8.13;7.07;;;15.90;99.90;;;;;;4923017;29;20079;-75
2021/05/14 08:20:59;;;;;;;6.63;5.90;;;15.90;99.90;;;;;;4900503;29;20157;-76
2021/05/14 08:23:25;;;;;;;6.03;5.53;;;16.00;99.90;;;;;;4924028;29;20500;-76
2021/05/14 08:25:51;;;;;;;7.97;4.72;;;16.00;99.90;;;;;;4928226;29;20063;-75
2021/05/14 08:28:17;;;;;;;4.90;4.50;;;16.20;99.90;;;;;;4934118;29;20505;-76
2021/05/14 08:30:45;;;;;;;5.28;4.78;;;16.30;99.90;;;;;;4924851;29;20035;-76
2021/05/14 08:33:11;;;;;;;4.47;4.13;;;16.30;99.90;;;;;;4898085;29;20056;-76
2021/05/14 08:35:37;;;;;;;7.90;4.10;;;16.40;99.90;;;;;;4914700;29;20559;-76
2021/05/14 08:38:04;;;;;;;4.40;4.00;;;16.40;99.90;;;;;;4933624;29;20036;-76
2021/05/14 08:40:34;;;;;;;4.35;4.05;;;16.40;99.90;;;;;;4933981;29;20032;-77
2021/05/14 08:43:00;;;;;;;5.43;4.05;;;16.50;99.90;;;;;;4917078;29;20071;-76
2021/05/14 08:45:27;;;;;;;4.10;3.80;;;16.50;99.90;;;;;;4922336;29;20020;-75
2021/05/14 08:47:55;;;;;;;4.53;4.28;;;16.60;99.90;;;;;;4917796;29;20539;-76
2021/05/14 08:50:22;;;;;;;3.65;3.45;;;16.60;99.90;;;;;;4917554;29;20028;-76
2021/05/14 08:52:48;;;;;;;4.03;3.72;;;16.60;99.90;;;;;;4916314;29;20039;-77
2021/05/14 08:55:14;;;;;;;3.95;3.67;;;16.60;99.90;;;;;;4915651;29;20024;-76
2021/05/14 08:57:40;;;;;;;4.55;4.15;;;16.50;99.90;;;;;;4915818;29;20111;-76
2021/05/14 09:00:12;;;;;;;4.38;4.05;;;16.60;99.90;;;;;;4898890;29;20032;-76
2021/05/14 09:02:38;;;;;;;2.83;2.60;;;16.60;99.90;;;;;;4915277;29;20036;-75
2021/05/14 09:05:20;;;;;;;4.90;2.30;;;16.70;99.90;;;;;;4914019;29;20055;-75
2021/05/14 09:07:49;;;;;;;1.73;1.63;;;16.70;99.90;;;;;;4915630;29;20112;-75
2021/05/14 09:10:16;;;;;;;1.90;1.73;;;16.80;99.90;;;;;;4915642;29;20272;-74
2021/05/14 09:12:43;;;;;;;1.15;1.15;;;16.90;99.90;;;;;;4898646;29;20035;-75
2021/05/14 09:15:29;;;;;;;1.20;1.10;;;16.90;99.90;;;;;;4915475;29;20039;-75
2021/05/14 09:18:01;;;;;;;2.38;2.17;;;16.90;99.90;;;;;;4898850;29;20070;-75
2021/05/14 09:20:31;;;;;;;;;;;17.00;99.90;;;;;;4916166;29;20035;-75
2021/05/14 09:22:57;;;;;;;2.30;2.20;;;17.10;99.90;;;;;;4915791;29;20031;-75
2021/05/14 09:25:23;;;;;;;3.00;2.80;;;17.10;99.90;;;;;;4916019;29;20028;-75
2021/05/14 09:27:48;;;;;;;3.50;3.20;;;17.20;99.90;;;;;;4901120;29;20107;-75
2021/05/14 09:30:14;;;;;;;3.88;2.97;;;17.20;99.90;;;;;;4898578;29;20587;-75
2021/05/14 09:32:43;;;;;;;4.68;3.33;;;17.30;99.90;;;;;;4915831;29;20024;-75
2021/05/14 09:35:10;;;;;;;4.60;4.00;;;17.30;99.90;;;;;;4915786;29;20031;-75
2021/05/14 09:37:51;;;;;;;3.50;3.30;;;17.40;99.90;;;;;;4915621;29;20032;-75
2021/05/14 09:40:22;;;;;;;3.63;3.33;;;17.50;99.90;;;;;;4898413;29;20032;-75
2021/05/14 09:42:56;;;;;;;3.50;3.30;;;17.50;99.90;;;;;;4915377;29;20031;-75
2021/05/14 09:45:27;;;;;;;7.60;2.53;;;17.40;99.90;;;;;;4915448;29;20012;-75
2021/05/14 09:48:26;;;;;;;4.15;3.75;;;17.40;99.90;;;;;;4915323;29;20024;-76
2021/05/14 09:50:52;;;;;;;4.15;3.85;;;17.50;99.90;;;;;;4898383;29;20504;-75
2021/05/14 09:53:18;;;;;;;4.63;4.22;;;17.50;99.90;;;;;;4898451;29;20370;-75
2021/05/14 09:55:50;;;;;;;4.85;4.45;;;17.60;99.90;;;;;;4898420;29;20043;-75
2021/05/14 09:58:24;;;;;;;4.10;3.78;;;17.70;99.90;;;;;;4915508;29;20032;-75
2021/05/14 10:00:50;;;;;;;6.25;5.65;;;17.70;99.90;;;;;;4898157;29;20035;-75
2021/05/14 10:03:25;;;;;;;6.57;4.97;;;17.80;99.90;;;;;;4915104;29;20028;-75
2021/05/14 10:05:52;;;;;;;4.72;4.25;;;18.00;99.90;;;;;;4915518;29;20048;-75
2021/05/14 10:08:30;;;;;;;4.47;4.18;;;18.10;99.90;;;;;;4898118;29;20428;-75
2021/05/14 10:11:01;;;;;;;4.72;4.43;;;18.10;99.90;;;;;;4915338;29;20551;-75
2021/05/14 10:13:29;;;;;;;6.40;5.80;;;18.10;99.90;;;;;;4915470;29;20036;-75
2021/05/14 10:15:56;;;;;;;6.38;5.78;;;18.10;99.90;;;;;;4898014;29;20115;-75
2021/05/14 10:18:22;;;;;;;4.13;3.83;;;18.30;99.90;;;;;;4915201;29;20464;-75
2021/05/14 10:20:51;;;;;;;3.92;3.63;;;18.50;99.90;;;;;;4897995;29;20039;-75
2021/05/14 10:23:17;;;;;;;6.07;4.93;;;18.40;99.90;;;;;;4915311;29;20151;-75
2021/05/14 10:25:44;;;;;;;5.90;5.40;;;18.40;99.90;;;;;;4915048;29;20028;-75
2021/05/14 10:28:34;;;;;;;5.03;4.65;;;18.40;99.90;;;;;;4915028;29;20095;-75
2021/05/14 10:31:15;;;;;;;5.35;4.93;;;18.60;99.90;;;;;;4914498;29;20076;-75
2021/05/14 10:33:43;;;;;;;5.03;4.57;;;18.70;99.90;;;;;;4915013;29;20476;-75
2021/05/14 10:36:32;;;;;;;4.53;4.10;;;18.80;99.90;;;;;;4915133;29;20032;-75
2021/05/14 10:39:18;;;;;;;4.25;3.92;;;18.70;99.90;;;;;;4897758;29;20036;-75
2021/05/14 10:41:57;;;;;;;5.07;4.55;;;19.00;99.90;;;;;;4914870;29;20052;-75
2021/05/14 10:44:58;;;;;;;9.40;5.68;;;19.20;99.90;;;;;;4898177;29;20036;-75
2021/05/14 10:47:24;;;;;;;7.78;5.28;;;19.50;99.90;;;;;;4856862;29;20109;-75
2021/05/14 10:50:05;;;;;;;5.57;4.80;;;19.60;99.90;;;;;;4886185;29;20093;-75
2021/05/14 10:52:33;;;;;;;5.13;4.68;;;19.50;99.90;;;;;;4914968;29;20028;-75
2021/05/14 10:55:00;;;;;;;6.25;4.85;;;19.50;99.90;;;;;;4915104;29;20035;-75
2021/05/14 10:57:43;;;;;;;5.68;5.07;;;19.60;99.90;;;;;;4897687;29;20024;-74
2021/05/14 11:00:29;;;;;;;9.50;5.93;;;19.80;99.90;;;;;;4897646;29;20029;-75
2021/05/14 11:03:10;;;;;;;7.03;5.95;;;20.00;99.90;;;;;;4897781;29;20024;-75
2021/05/14 11:05:41;;;;;;;6.23;5.63;;;20.10;99.90;;;;;;4914793;29;20055;-75
2021/05/14 11:08:33;;;;;;;6.78;6.03;;;20.10;99.90;;;;;;4897865;29;20047;-74
2021/05/14 11:11:00;;;;;;;5.38;4.85;;;20.20;99.90;;;;;;4871458;29;20131;-75
2021/05/14 11:13:43;;;;;;;4.30;3.90;;;20.30;99.90;;;;;;4914778;29;20567;-75
2021/05/14 11:16:27;;;;;;;;;;;20.30;98.50;;;;;;4917054;29;20072;-75
2021/05/14 11:18:53;;;;;;;5.88;5.38;;;20.30;95.70;;;;;;4901297;29;19913;-75
2021/05/14 11:21:19;;;;;;;8.05;5.45;;;20.40;99.30;;;;;;4917994;29;20036;-75
2021/05/14 11:23:45;;;;;;;6.15;5.30;;;20.60;99.90;;;;;;4918142;29;20052;-75
2021/05/14 11:26:18;;;;;;;7.35;5.70;;;20.50;99.40;;;;;;4917874;29;20432;-74
2021/05/14 11:28:47;;;;;;;6.10;5.50;;;20.60;99.90;;;;;;4903367;29;20575;-75
2021/05/14 11:31:24;;;;;;;5.38;4.88;;;20.60;96.20;;;;;;4917948;29;20556;-75
2021/05/14 11:33:53;;;;;;;5.60;5.10;;;20.60;96.90;;;;;;4918080;29;20032;-75
2021/05/14 11:36:19;;;;;;;4.13;3.83;;;20.60;95.70;;;;;;4917853;29;20029;-75
2021/05/14 11:38:59;;;;;;;7.60;5.13;;;20.70;96.80;;;;;;4900833;29;20580;-74
2021/05/14 11:41:26;;;;;;;4.88;4.47;;;21.00;96.90;;;;;;4917525;29;20176;-74
2021/05/14 11:44:03;;;;;;;4.97;4.57;;;21.10;97.30;;;;;;4900649;29;20426;-75
2021/05/14 11:46:33;;;;;;;5.53;5.03;;;21.10;96.00;;;;;;4917582;29;20058;-75
2021/05/14 11:49:09;;;;;;;12.07;5.32;;;20.90;95.80;;;;;;4917649;29;20032;-75
2021/05/14 11:51:39;;;;;;;5.88;4.97;;;20.80;96.20;;;;;;4917558;29;20021;-75
2021/05/14 11:54:27;;;;;;;5.93;4.15;;;20.80;96.10;;;;;;4917398;29;20016;-75
2021/05/14 11:56:52;;;;;;;3.33;3.03;;;21.20;96.90;;;;;;4917508;29;20080;-75
2021/05/14 11:59:22;;;;;;;7.32;3.78;;;21.50;95.70;;;;;;4917302;29;20024;-75
2021/05/14 12:01:47;;;;;;;5.55;3.40;;;21.60;94.00;;;;;;4917389;29;20028;-75
2021/05/14 12:04:13;;;;;;;5.95;2.70;;;21.80;95.10;;;;;;4917284;29;20551;-75
2021/05/14 12:06:49;;;;;;;3.50;3.17;;;21.60;93.80;;;;;;4917378;29;20561;-74
2021/05/14 12:09:15;;;;;;;2.97;2.70;;;21.60;92.60;;;;;;4900374;29;20036;-75
2021/05/14 12:11:44;;;;;;;3.80;2.45;;;21.70;94.60;;;;;;4917217;29;20715;-75
2021/05/14 12:14:12;;;;;;;4.22;2.60;;;21.70;93.80;;;;;;4900105;29;20032;-75
2021/05/14 12:16:38;;;;;;;3.92;2.72;;;22.10;95.40;;;;;;4917223;29;20031;-75
2021/05/14 12:19:04;;;;;;;4.43;2.60;;;22.10;92.30;;;;;;4900042;29;20028;-74
2021/05/14 12:21:32;;;;;;;3.15;2.83;;;21.90;92.50;;;;;;4916970;29;20123;-75
2021/05/14 12:24:10;;;;;;;6.28;2.88;;;21.90;91.00;;;;;;4917077;29;20020;-75
2021/05/14 12:26:36;;;;;;;4.05;3.17;;;21.80;91.70;;;;;;4916192;29;20021;-75
2021/05/14 12:29:03;;;;;;;2.42;2.33;;;21.50;92.30;;;;;;4916596;29;20032;-75
2021/05/14 12:31:31;;;;;;;3.10;2.67;;;21.60;93.30;;;;;;4899853;29;20036;-75
2021/05/14 12:34:08;;;;;;;3.75;3.45;;;21.50;92.90;;;;;;4917052;29;20024;-75
2021/05/14 12:36:35;;;;;;;6.38;3.67;;;21.70;93.50;;;;;;4916732;29;20412;-74
2021/05/14 12:39:15;;;;;;;9.48;3.13;;;21.90;93.00;;;;;;4899920;29;20460;-75
2021/05/14 12:41:43;;;;;;;3.17;2.88;;;22.10;92.00;;;;;;4899398;29;20485;-75
2021/05/14 12:44:26;;;;;;;5.15;3.63;;;22.10;92.60;;;;;;4916559;29;20038;-75
2021/05/14 12:47:09;;;;;;;4.68;3.35;;;22.00;91.40;;;;;;4916585;29;20072;-75
2021/05/14 12:49:48;;;;;;;4.45;4.05;;;21.80;91.90;;;;;;4916393;29;20028;-75
2021/05/14 12:52:32;;;;;;;3.92;3.63;;;21.60;92.10;;;;;;4913266;29;20028;-75
2021/05/14 12:55:02;;;;;;;5.10;3.65;;;21.50;92.30;;;;;;4926409;29;20456;-74
2021/05/14 12:57:34;;;;;;;3.58;2.88;;;21.60;92.10;;;;;;4930813;29;20054;-75